TAF KJEF
KJEF 270520Z 2706/2806 VRB04KT P6SM SCT250 WS020/26040KT FM271100 19006KT P6SM SCT250 FM271800 27010KT P6SM SCT250 FM280300 32007KT P6SM SKC=
METAR KJEF
WC KJEF
WS KJEF
WV KJEF